sensor_id;sensor_type;location;lat;lon;timestamp;temperature;humidity
19552;DHT22;9921;47.186;9.778;2024-01-10T00:01:57;-0.40;99.90
19552;DHT22;9921;47.186;9.778;2024-01-10T00:04:24;-0.40;99.90
19552;DHT22;9921;47.186;9.778;2024-01-10T00:06:50;-0.50;99.90
19552;DHT22;9921;47.186;9.778;2024-01-10T00:09:17;-0.50;99.90
19552;DHT22;9921;47.186;9.778;2024-01-10T00:11:46;-0.50;99.90
19552;DHT22;9921;47.186;9.778;2024-01-10T00:14:13;-0.50;99.90
19552;DHT22;9921;47.186;9.778;2024-01-10T00:16:40;-0.50;99.90
19552;DHT22;9921;47.186;9.778;2024-01-10T00:19:07;-0.50;99.90
19552;DHT22;9921;47.186;9.778;2024-01-10T00:21:33;-0.50;99.90
19552;DHT22;9921;47.186;9.778;2024-01-10T00:24:00;-0.60;99.90
19552;DHT22;9921;47.186;9.778;2024-01-10T00:26:27;-0.50;99.90
19552;DHT22;9921;47.186;9.778;2024-01-10T00:28:56;-0.50;99.90
19552;DHT22;9921;47.186;9.778;2024-01-10T00:31:22;-0.60;99.90
19552;DHT22;9921;47.186;9.778;2024-01-10T00:33:49;-0.50;99.90
19552;DHT22;9921;47.186;9.778;2024-01-10T00:36:16;-0.60;99.90
19552;DHT22;9921;47.186;9.778;2024-01-10T00:38:46;-0.60;99.90
19552;DHT22;9921;47.186;9.778;2024-01-10T00:41:13;-0.60;99.90
19552;DHT22;9921;47.186;9.778;2024-01-10T00:43:42;-0.70;99.90
19552;DHT22;9921;47.186;9.778;2024-01-10T00:46:10;-0.70;99.90
19552;DHT22;9921;47.186;9.778;2024-01-10T00:48:37;-0.70;99.90
19552;DHT22;9921;47.186;9.778;2024-01-10T00:51:04;-0.80;99.90
19552;DHT22;9921;47.186;9.778;2024-01-10T00:53:34;-0.70;99.90
19552;DHT22;9921;47.186;9.778;2024-01-10T00:56:01;-0.70;99.90
19552;DHT22;9921;47.186;9.778;2024-01-10T00:58:27;-0.70;99.90
19552;DHT22;9921;47.186;9.778;2024-01-10T01:00:54;-0.70;99.90
19552;DHT22;9921;47.186;9.778;2024-01-10T01:03:22;-0.70;99.90
19552;DHT22;9921;47.186;9.778;2024-01-10T01:05:49;-0.60;99.90
19552;DHT22;9921;47.186;9.778;2024-01-10T01:08:16;-0.50;99.90
19552;DHT22;9921;47.186;9.778;2024-01-10T01:10:43;-0.50;99.90
19552;DHT22;9921;47.186;9.778;2024-01-10T01:13:10;-0.40;99.90
19552;DHT22;9921;47.186;9.778;2024-01-10T01:15:37;-0.30;99.90
19552;DHT22;9921;47.186;9.778;2024-01-10T01:18:07;-0.40;99.90
19552;DHT22;9921;47.186;9.778;2024-01-10T01:20:36;-0.30;99.90
19552;DHT22;9921;47.186;9.778;2024-01-10T01:23:03;-0.30;99.90
19552;DHT22;9921;47.186;9.778;2024-01-10T01:25:30;-0.30;99.90
19552;DHT22;9921;47.186;9.778;2024-01-10T01:27:57;-0.40;99.90
19552;DHT22;9921;47.186;9.778;2024-01-10T01:30:24;-0.40;99.90
19552;DHT22;9921;47.186;9.778;2024-01-10T01:32:51;-0.50;99.90
19552;DHT22;9921;47.186;9.778;2024-01-10T01:35:18;-0.50;99.90
19552;DHT22;9921;47.186;9.778;2024-01-10T01:37:49;-0.40;99.90
19552;DHT22;9921;47.186;9.778;2024-01-10T01:40:18;-0.40;99.90
19552;DHT22;9921;47.186;9.778;2024-01-10T01:42:45;-0.40;99.90
19552;DHT22;9921;47.186;9.778;2024-01-10T01:45:13;-0.40;99.90
19552;DHT22;9921;47.186;9.778;2024-01-10T01:47:42;-0.40;99.90
19552;DHT22;9921;47.186;9.778;2024-01-10T01:50:10;-0.40;99.90
19552;DHT22;9921;47.186;9.778;2024-01-10T01:52:37;-0.40;99.90
19552;DHT22;9921;47.186;9.778;2024-01-10T01:55:07;-0.50;99.90
19552;DHT22;9921;47.186;9.778;2024-01-10T01:57:35;-0.50;99.90
19552;DHT22;9921;47.186;9.778;2024-01-10T02:00:04;-0.40;99.90
19552;DHT22;9921;47.186;9.778;2024-01-10T02:02:31;-0.50;99.90
19552;DHT22;9921;47.186;9.778;2024-01-10T02:04:58;-0.50;99.90
19552;DHT22;9921;47.186;9.778;2024-01-10T02:07:25;-0.60;99.90
19552;DHT22;9921;47.186;9.778;2024-01-10T02:09:53;-0.60;99.90
19552;DHT22;9921;47.186;9.778;2024-01-10T02:12:21;-0.50;99.90
19552;DHT22;9921;47.186;9.778;2024-01-10T02:14:48;-0.60;99.90
19552;DHT22;9921;47.186;9.778;2024-01-10T02:17:15;-0.60;99.90
19552;DHT22;9921;47.186;9.778;2024-01-10T02:19:42;-0.60;99.90
19552;DHT22;9921;47.186;9.778;2024-01-10T02:22:08;-0.70;99.90
19552;DHT22;9921;47.186;9.778;2024-01-10T02:24:36;-0.60;99.90
19552;DHT22;9921;47.186;9.778;2024-01-10T02:27:05;-0.70;99.90
19552;DHT22;9921;47.186;9.778;2024-01-10T02:29:31;-0.80;99.90
19552;DHT22;9921;47.186;9.778;2024-01-10T02:32:00;-0.80;99.90
19552;DHT22;9921;47.186;9.778;2024-01-10T02:34:27;-0.80;99.90
19552;DHT22;9921;47.186;9.778;2024-01-10T02:36:53;-0.90;99.90
19552;DHT22;9921;47.186;9.778;2024-01-10T02:39:20;-0.90;99.90
19552;DHT22;9921;47.186;9.778;2024-01-10T02:41:47;-0.90;99.90
19552;DHT22;9921;47.186;9.778;2024-01-10T02:44:15;-0.90;99.90
19552;DHT22;9921;47.186;9.778;2024-01-10T02:46:44;-1.00;99.90
19552;DHT22;9921;47.186;9.778;2024-01-10T02:49:11;-1.00;99.90
19552;DHT22;9921;47.186;9.778;2024-01-10T02:51:40;-1.00;99.90
19552;DHT22;9921;47.186;9.778;2024-01-10T02:54:07;-0.90;99.90
19552;DHT22;9921;47.186;9.778;2024-01-10T02:56:34;-0.90;99.90
19552;DHT22;9921;47.186;9.778;2024-01-10T02:59:00;-0.90;99.90
19552;DHT22;9921;47.186;9.778;2024-01-10T03:01:29;-0.90;99.90
19552;DHT22;9921;47.186;9.778;2024-01-10T03:03:56;-0.90;99.90
19552;DHT22;9921;47.186;9.778;2024-01-10T03:06:23;-0.90;99.90
19552;DHT22;9921;47.186;9.778;2024-01-10T03:08:50;-0.90;99.90
19552;DHT22;9921;47.186;9.778;2024-01-10T03:11:17;-0.90;99.90
19552;DHT22;9921;47.186;9.778;2024-01-10T03:13:44;-0.90;99.90
19552;DHT22;9921;47.186;9.778;2024-01-10T03:16:12;-1.00;99.90
19552;DHT22;9921;47.186;9.778;2024-01-10T03:18:40;-1.00;99.90
19552;DHT22;9921;47.186;9.778;2024-01-10T03:21:07;-1.00;99.90
19552;DHT22;9921;47.186;9.778;2024-01-10T03:23:34;-1.00;99.90
19552;DHT22;9921;47.186;9.778;2024-01-10T03:26:01;-1.10;99.90
19552;DHT22;9921;47.186;9.778;2024-01-10T03:28:28;-1.10;99.90
19552;DHT22;9921;47.186;9.778;2024-01-10T03:30:54;-1.20;99.90
19552;DHT22;9921;47.186;9.778;2024-01-10T03:33:21;-1.20;99.90
19552;DHT22;9921;47.186;9.778;2024-01-10T03:35:49;-1.30;99.90
19552;DHT22;9921;47.186;9.778;2024-01-10T03:38:16;-1.30;99.90
19552;DHT22;9921;47.186;9.778;2024-01-10T03:40:43;-1.50;99.90
19552;DHT22;9921;47.186;9.778;2024-01-10T03:43:10;-1.50;99.90
19552;DHT22;9921;47.186;9.778;2024-01-10T03:45:37;-1.50;99.90
19552;DHT22;9921;47.186;9.778;2024-01-10T03:48:05;-1.50;99.90
19552;DHT22;9921;47.186;9.778;2024-01-10T03:50:32;-1.50;99.90
19552;DHT22;9921;47.186;9.778;2024-01-10T03:53:02;-1.50;99.90
19552;DHT22;9921;47.186;9.778;2024-01-10T03:55:29;-1.60;99.90
19552;DHT22;9921;47.186;9.778;2024-01-10T03:57:56;-1.60;99.90
19552;DHT22;9921;47.186;9.778;2024-01-10T04:00:23;-1.70;99.90
19552;DHT22;9921;47.186;9.778;2024-01-10T04:02:50;-1.70;99.90
19552;DHT22;9921;47.186;9.778;2024-01-10T04:05:17;-1.70;99.90
19552;DHT22;9921;47.186;9.778;2024-01-10T04:07:45;-1.70;99.90
19552;DHT22;9921;47.186;9.778;2024-01-10T04:10:13;-1.70;99.90
19552;DHT22;9921;47.186;9.778;2024-01-10T04:12:40;-1.70;99.90
19552;DHT22;9921;47.186;9.778;2024-01-10T04:15:08;-1.70;99.90
19552;DHT22;9921;47.186;9.778;2024-01-10T04:17:35;-1.80;99.90
19552;DHT22;9921;47.186;9.778;2024-01-10T04:20:02;-1.70;99.90
19552;DHT22;9921;47.186;9.778;2024-01-10T04:22:29;-1.70;99.90
19552;DHT22;9921;47.186;9.778;2024-01-10T04:24:57;-1.70;99.90
19552;DHT22;9921;47.186;9.778;2024-01-10T04:27:26;-1.70;99.90
19552;DHT22;9921;47.186;9.778;2024-01-10T04:29:53;-1.70;99.90
19552;DHT22;9921;47.186;9.778;2024-01-10T04:32:20;-1.60;99.90
19552;DHT22;9921;47.186;9.778;2024-01-10T04:34:47;-1.70;99.90
19552;DHT22;9921;47.186;9.778;2024-01-10T04:37:14;-1.70;99.90
19552;DHT22;9921;47.186;9.778;2024-01-10T04:39:41;-1.80;99.90
19552;DHT22;9921;47.186;9.778;2024-01-10T04:42:08;-1.90;99.90
19552;DHT22;9921;47.186;9.778;2024-01-10T04:44:36;-2.00;99.90
19552;DHT22;9921;47.186;9.778;2024-01-10T04:47:04;-2.10;99.90
19552;DHT22;9921;47.186;9.778;2024-01-10T04:49:31;-2.10;99.90
19552;DHT22;9921;47.186;9.778;2024-01-10T04:51:58;-2.10;99.90
19552;DHT22;9921;47.186;9.778;2024-01-10T04:54:25;-2.10;99.90
19552;DHT22;9921;47.186;9.778;2024-01-10T04:56:51;-2.20;99.90
19552;DHT22;9921;47.186;9.778;2024-01-10T04:59:18;-2.20;99.90
19552;DHT22;9921;47.186;9.778;2024-01-10T05:01:47;-2.20;99.90
19552;DHT22;9921;47.186;9.778;2024-01-10T05:04:13;-2.30;99.90
19552;DHT22;9921;47.186;9.778;2024-01-10T05:06:40;-2.40;99.90
19552;DHT22;9921;47.186;9.778;2024-01-10T05:09:07;-2.30;99.90
19552;DHT22;9921;47.186;9.778;2024-01-10T05:11:35;-2.20;99.90
19552;DHT22;9921;47.186;9.778;2024-01-10T05:14:04;-2.20;99.90
19552;DHT22;9921;47.186;9.778;2024-01-10T05:16:31;-2.30;99.90
19552;DHT22;9921;47.186;9.778;2024-01-10T05:19:02;-2.30;99.90
19552;DHT22;9921;47.186;9.778;2024-01-10T05:21:29;-2.20;99.90
19552;DHT22;9921;47.186;9.778;2024-01-10T05:23:56;-2.20;99.90
19552;DHT22;9921;47.186;9.778;2024-01-10T05:26:23;-2.30;99.90
19552;DHT22;9921;47.186;9.778;2024-01-10T05:28:50;-2.30;99.90
19552;DHT22;9921;47.186;9.778;2024-01-10T05:31:17;-2.30;99.90
19552;DHT22;9921;47.186;9.778;2024-01-10T05:33:46;-2.30;99.90
19552;DHT22;9921;47.186;9.778;2024-01-10T05:36:14;-2.40;99.90
19552;DHT22;9921;47.186;9.778;2024-01-10T05:38:41;-2.40;99.90
19552;DHT22;9921;47.186;9.778;2024-01-10T05:41:08;-2.30;99.90
19552;DHT22;9921;47.186;9.778;2024-01-10T05:43:35;-2.30;99.90
19552;DHT22;9921;47.186;9.778;2024-01-10T05:46:02;-2.30;99.90
19552;DHT22;9921;47.186;9.778;2024-01-10T05:48:30;-2.30;99.90
19552;DHT22;9921;47.186;9.778;2024-01-10T05:50:57;-2.20;99.90
19552;DHT22;9921;47.186;9.778;2024-01-10T05:53:25;-2.30;99.90
19552;DHT22;9921;47.186;9.778;2024-01-10T05:55:52;-2.40;99.90
19552;DHT22;9921;47.186;9.778;2024-01-10T05:58:19;-2.60;99.90
19552;DHT22;9921;47.186;9.778;2024-01-10T06:00:46;-2.60;99.90
19552;DHT22;9921;47.186;9.778;2024-01-10T06:03:12;-2.70;99.90
19552;DHT22;9921;47.186;9.778;2024-01-10T06:05:39;-2.70;99.90
19552;DHT22;9921;47.186;9.778;2024-01-10T06:08:06;-2.70;99.90
19552;DHT22;9921;47.186;9.778;2024-01-10T06:10:34;-2.60;99.90
19552;DHT22;9921;47.186;9.778;2024-01-10T06:13:01;-2.50;99.90
19552;DHT22;9921;47.186;9.778;2024-01-10T06:15:29;-2.50;99.90
19552;DHT22;9921;47.186;9.778;2024-01-10T06:17:55;-2.60;99.90
19552;DHT22;9921;47.186;9.778;2024-01-10T06:20:22;-2.60;99.90
19552;DHT22;9921;47.186;9.778;2024-01-10T06:22:49;-2.60;99.90
19552;DHT22;9921;47.186;9.778;2024-01-10T06:25:16;-2.60;99.90
19552;DHT22;9921;47.186;9.778;2024-01-10T06:27:44;-2.60;99.90
19552;DHT22;9921;47.186;9.778;2024-01-10T06:30:12;-2.60;99.90
19552;DHT22;9921;47.186;9.778;2024-01-10T06:32:39;-2.80;99.90
19552;DHT22;9921;47.186;9.778;2024-01-10T06:35:06;-2.80;99.90
19552;DHT22;9921;47.186;9.778;2024-01-10T06:37:35;-2.80;99.90
19552;DHT22;9921;47.186;9.778;2024-01-10T06:40:02;-2.80;99.90
19552;DHT22;9921;47.186;9.778;2024-01-10T06:42:32;-2.70;99.90
19552;DHT22;9921;47.186;9.778;2024-01-10T06:45:01;-2.80;99.90
19552;DHT22;9921;47.186;9.778;2024-01-10T06:47:28;-2.80;99.90
19552;DHT22;9921;47.186;9.778;2024-01-10T06:49:55;-2.80;99.90
19552;DHT22;9921;47.186;9.778;2024-01-10T06:52:22;-2.90;99.90
19552;DHT22;9921;47.186;9.778;2024-01-10T06:54:49;-2.90;99.90
19552;DHT22;9921;47.186;9.778;2024-01-10T06:57:16;-2.70;99.90
19552;DHT22;9921;47.186;9.778;2024-01-10T06:59:43;-2.70;99.90
19552;DHT22;9921;47.186;9.778;2024-01-10T07:02:11;-2.60;99.90
19552;DHT22;9921;47.186;9.778;2024-01-10T07:04:38;-2.70;99.90
19552;DHT22;9921;47.186;9.778;2024-01-10T07:07:05;-2.60;99.90
19552;DHT22;9921;47.186;9.778;2024-01-10T07:09:34;-2.60;99.90
19552;DHT22;9921;47.186;9.778;2024-01-10T07:12:00;-2.70;99.90
19552;DHT22;9921;47.186;9.778;2024-01-10T07:14:29;-2.80;99.90
19552;DHT22;9921;47.186;9.778;2024-01-10T07:16:56;-2.80;99.90
19552;DHT22;9921;47.186;9.778;2024-01-10T07:19:24;-2.80;99.90
19552;DHT22;9921;47.186;9.778;2024-01-10T07:21:51;-2.80;99.90
19552;DHT22;9921;47.186;9.778;2024-01-10T07:24:19;-2.70;99.90
19552;DHT22;9921;47.186;9.778;2024-01-10T07:26:47;-2.50;99.90
19552;DHT22;9921;47.186;9.778;2024-01-10T07:29:13;-2.50;99.90
19552;DHT22;9921;47.186;9.778;2024-01-10T07:31:40;-2.30;99.90
19552;DHT22;9921;47.186;9.778;2024-01-10T07:34:07;-2.20;99.90
19552;DHT22;9921;47.186;9.778;2024-01-10T07:36:41;-2.20;99.90
19552;DHT22;9921;47.186;9.778;2024-01-10T07:39:08;-2.10;99.90
19552;DHT22;9921;47.186;9.778;2024-01-10T07:41:36;-2.20;99.90
19552;DHT22;9921;47.186;9.778;2024-01-10T07:44:03;-2.10;99.90
19552;DHT22;9921;47.186;9.778;2024-01-10T07:46:30;-2.00;99.90
19552;DHT22;9921;47.186;9.778;2024-01-10T07:49:00;-2.00;99.90
19552;DHT22;9921;47.186;9.778;2024-01-10T07:51:26;-2.00;99.90
19552;DHT22;9921;47.186;9.778;2024-01-10T07:53:55;-2.00;99.90
19552;DHT22;9921;47.186;9.778;2024-01-10T07:56:22;-1.90;99.90
19552;DHT22;9921;47.186;9.778;2024-01-10T07:58:49;-1.90;99.90
19552;DHT22;9921;47.186;9.778;2024-01-10T08:01:16;-1.70;99.90
19552;DHT22;9921;47.186;9.778;2024-01-10T08:03:43;-1.60;99.90
19552;DHT22;9921;47.186;9.778;2024-01-10T08:06:10;-1.70;99.90
19552;DHT22;9921;47.186;9.778;2024-01-10T08:08:38;-1.60;99.90
19552;DHT22;9921;47.186;9.778;2024-01-10T08:11:06;-1.60;99.90
19552;DHT22;9921;47.186;9.778;2024-01-10T08:13:33;-1.60;99.90
19552;DHT22;9921;47.186;9.778;2024-01-10T08:16:00;-1.70;99.90
19552;DHT22;9921;47.186;9.778;2024-01-10T08:18:26;-1.70;99.90
19552;DHT22;9921;47.186;9.778;2024-01-10T08:20:53;-1.80;99.90
19552;DHT22;9921;47.186;9.778;2024-01-10T08:23:20;-1.70;99.90
19552;DHT22;9921;47.186;9.778;2024-01-10T08:25:47;-1.60;99.90
19552;DHT22;9921;47.186;9.778;2024-01-10T08:28:15;-1.60;99.90
19552;DHT22;9921;47.186;9.778;2024-01-10T08:30:42;-1.60;99.90
19552;DHT22;9921;47.186;9.778;2024-01-10T08:33:09;-1.60;99.90
19552;DHT22;9921;47.186;9.778;2024-01-10T08:35:36;-1.50;99.90
19552;DHT22;9921;47.186;9.778;2024-01-10T08:38:04;-1.40;99.90
19552;DHT22;9921;47.186;9.778;2024-01-10T08:40:33;-1.30;99.90
19552;DHT22;9921;47.186;9.778;2024-01-10T08:43:00;-1.30;99.90
19552;DHT22;9921;47.186;9.778;2024-01-10T08:45:28;-1.30;99.90
19552;DHT22;9921;47.186;9.778;2024-01-10T08:47:55;-1.40;99.90
19552;DHT22;9921;47.186;9.778;2024-01-10T08:50:23;-1.40;99.90
19552;DHT22;9921;47.186;9.778;2024-01-10T08:52:50;-1.50;99.90
19552;DHT22;9921;47.186;9.778;2024-01-10T08:55:17;-1.50;99.90
19552;DHT22;9921;47.186;9.778;2024-01-10T08:57:44;-1.60;99.90
19552;DHT22;9921;47.186;9.778;2024-01-10T09:00:16;-1.60;99.90
19552;DHT22;9921;47.186;9.778;2024-01-10T09:02:44;-1.60;99.90
19552;DHT22;9921;47.186;9.778;2024-01-10T09:05:11;-1.60;99.90
19552;DHT22;9921;47.186;9.778;2024-01-10T09:07:38;-1.50;99.90
19552;DHT22;9921;47.186;9.778;2024-01-10T09:10:05;-1.50;99.90
19552;DHT22;9921;47.186;9.778;2024-01-10T09:12:33;-1.40;99.90
19552;DHT22;9921;47.186;9.778;2024-01-10T09:15:00;-1.40;99.90
19552;DHT22;9921;47.186;9.778;2024-01-10T09:17:27;-1.40;99.90
19552;DHT22;9921;47.186;9.778;2024-01-10T09:19:54;-1.30;99.90
19552;DHT22;9921;47.186;9.778;2024-01-10T09:22:21;-1.20;99.90
19552;DHT22;9921;47.186;9.778;2024-01-10T09:24:48;-1.00;99.90
19552;DHT22;9921;47.186;9.778;2024-01-10T09:27:15;-0.70;99.90
19552;DHT22;9921;47.186;9.778;2024-01-10T09:29:43;-0.20;99.90
19552;DHT22;9921;47.186;9.778;2024-01-10T09:32:10;0.10;99.90
19552;DHT22;9921;47.186;9.778;2024-01-10T09:34:37;0.50;99.90
19552;DHT22;9921;47.186;9.778;2024-01-10T09:37:05;0.80;99.90
19552;DHT22;9921;47.186;9.778;2024-01-10T09:39:35;1.00;99.90
19552;DHT22;9921;47.186;9.778;2024-01-10T09:42:02;1.30;99.90
19552;DHT22;9921;47.186;9.778;2024-01-10T09:44:30;1.40;99.90
19552;DHT22;9921;47.186;9.778;2024-01-10T09:46:57;1.60;99.90
19552;DHT22;9921;47.186;9.778;2024-01-10T09:49:24;1.60;99.90
19552;DHT22;9921;47.186;9.778;2024-01-10T09:51:56;1.80;99.90
19552;DHT22;9921;47.186;9.778;2024-01-10T09:54:26;1.90;99.90
19552;DHT22;9921;47.186;9.778;2024-01-10T09:56:53;2.10;99.90
19552;DHT22;9921;47.186;9.778;2024-01-10T09:59:21;2.30;99.90
19552;DHT22;9921;47.186;9.778;2024-01-10T10:01:48;2.50;99.90
19552;DHT22;9921;47.186;9.778;2024-01-10T10:04:15;2.70;99.90
19552;DHT22;9921;47.186;9.778;2024-01-10T10:06:44;2.60;99.90
19552;DHT22;9921;47.186;9.778;2024-01-10T10:09:11;2.40;99.90
19552;DHT22;9921;47.186;9.778;2024-01-10T10:11:40;2.20;99.90
19552;DHT22;9921;47.186;9.778;2024-01-10T10:14:14;2.10;99.90
19552;DHT22;9921;47.186;9.778;2024-01-10T10:16:42;2.10;99.90
19552;DHT22;9921;47.186;9.778;2024-01-10T10:19:08;2.10;99.90
19552;DHT22;9921;47.186;9.778;2024-01-10T10:21:37;2.20;99.90
19552;DHT22;9921;47.186;9.778;2024-01-10T10:24:05;2.30;99.90
19552;DHT22;9921;47.186;9.778;2024-01-10T10:26:33;2.40;99.90
19552;DHT22;9921;47.186;9.778;2024-01-10T10:29:03;2.50;99.90
19552;DHT22;9921;47.186;9.778;2024-01-10T10:31:31;2.60;99.90
19552;DHT22;9921;47.186;9.778;2024-01-10T10:33:59;2.40;99.90
19552;DHT22;9921;47.186;9.778;2024-01-10T10:36:28;2.30;99.90
19552;DHT22;9921;47.186;9.778;2024-01-10T10:38:59;2.20;99.90
19552;DHT22;9921;47.186;9.778;2024-01-10T10:41:30;2.10;99.90
19552;DHT22;9921;47.186;9.778;2024-01-10T10:43:58;1.90;99.90
19552;DHT22;9921;47.186;9.778;2024-01-10T10:46:27;1.70;99.90
19552;DHT22;9921;47.186;9.778;2024-01-10T10:48:59;1.60;99.90
19552;DHT22;9921;47.186;9.778;2024-01-10T10:51:30;1.50;99.90
19552;DHT22;9921;47.186;9.778;2024-01-10T10:53:59;1.40;99.90
19552;DHT22;9921;47.186;9.778;2024-01-10T10:56:29;1.40;99.90
19552;DHT22;9921;47.186;9.778;2024-01-10T10:58:57;1.40;99.90
19552;DHT22;9921;47.186;9.778;2024-01-10T11:01:28;1.40;99.90
19552;DHT22;9921;47.186;9.778;2024-01-10T11:03:55;1.30;99.90
19552;DHT22;9921;47.186;9.778;2024-01-10T11:06:23;1.40;99.90
19552;DHT22;9921;47.186;9.778;2024-01-10T11:08:52;1.30;99.90
19552;DHT22;9921;47.186;9.778;2024-01-10T11:11:35;1.40;99.90
19552;DHT22;9921;47.186;9.778;2024-01-10T11:14:13;1.40;99.90
19552;DHT22;9921;47.186;9.778;2024-01-10T11:17:28;1.60;99.90
19552;DHT22;9921;47.186;9.778;2024-01-10T11:20:13;1.70;99.90
19552;DHT22;9921;47.186;9.778;2024-01-10T11:23:00;1.70;99.90
19552;DHT22;9921;47.186;9.778;2024-01-10T11:25:29;1.80;99.90
19552;DHT22;9921;47.186;9.778;2024-01-10T11:27:57;1.80;99.90
19552;DHT22;9921;47.186;9.778;2024-01-10T11:30:35;1.80;99.90
19552;DHT22;9921;47.186;9.778;2024-01-10T11:33:18;1.80;99.90
19552;DHT22;9921;47.186;9.778;2024-01-10T11:36:06;1.80;99.90
19552;DHT22;9921;47.186;9.778;2024-01-10T11:38:39;1.80;99.90
19552;DHT22;9921;47.186;9.778;2024-01-10T11:41:06;1.80;99.90
19552;DHT22;9921;47.186;9.778;2024-01-10T11:43:34;2.00;99.90
19552;DHT22;9921;47.186;9.778;2024-01-10T11:46:02;2.10;99.90
19552;DHT22;9921;47.186;9.778;2024-01-10T11:48:32;2.10;99.90
19552;DHT22;9921;47.186;9.778;2024-01-10T11:50:59;2.10;99.90
19552;DHT22;9921;47.186;9.778;2024-01-10T11:53:43;2.10;99.90
19552;DHT22;9921;47.186;9.778;2024-01-10T11:56:13;2.00;99.90
19552;DHT22;9921;47.186;9.778;2024-01-10T11:58:55;2.10;99.90
19552;DHT22;9921;47.186;9.778;2024-01-10T12:01:22;2.10;99.90
19552;DHT22;9921;47.186;9.778;2024-01-10T12:03:52;2.00;99.90
19552;DHT22;9921;47.186;9.778;2024-01-10T12:06:21;2.00;99.90
19552;DHT22;9921;47.186;9.778;2024-01-10T12:08:48;2.00;99.90
19552;DHT22;9921;47.186;9.778;2024-01-10T12:11:16;2.00;99.90
19552;DHT22;9921;47.186;9.778;2024-01-10T12:13:43;2.10;99.90
19552;DHT22;9921;47.186;9.778;2024-01-10T12:16:10;2.10;99.90
19552;DHT22;9921;47.186;9.778;2024-01-10T12:18:38;2.10;99.90
19552;DHT22;9921;47.186;9.778;2024-01-10T12:21:06;2.20;99.90
19552;DHT22;9921;47.186;9.778;2024-01-10T12:23:36;2.20;99.90
19552;DHT22;9921;47.186;9.778;2024-01-10T12:26:05;2.30;99.90
19552;DHT22;9921;47.186;9.778;2024-01-10T12:28:34;2.30;99.90
19552;DHT22;9921;47.186;9.778;2024-01-10T12:31:01;2.40;99.90
19552;DHT22;9921;47.186;9.778;2024-01-10T12:33:28;2.30;99.90
19552;DHT22;9921;47.186;9.778;2024-01-10T12:36:07;2.40;99.90
19552;DHT22;9921;47.186;9.778;2024-01-10T12:38:35;2.40;99.90
19552;DHT22;9921;47.186;9.778;2024-01-10T12:41:03;2.30;99.90
19552;DHT22;9921;47.186;9.778;2024-01-10T12:43:30;2.30;99.90
19552;DHT22;9921;47.186;9.778;2024-01-10T12:46:05;2.30;99.90
19552;DHT22;9921;47.186;9.778;2024-01-10T12:48:33;2.40;99.90
19552;DHT22;9921;47.186;9.778;2024-01-10T12:51:02;2.40;99.90
19552;DHT22;9921;47.186;9.778;2024-01-10T12:53:33;2.60;99.90
19552;DHT22;9921;47.186;9.778;2024-01-10T12:56:02;2.70;99.90
19552;DHT22;9921;47.186;9.778;2024-01-10T12:58:29;2.80;99.90
19552;DHT22;9921;47.186;9.778;2024-01-10T13:00:56;3.00;99.90
19552;DHT22;9921;47.186;9.778;2024-01-10T13:03:23;3.00;99.90
19552;DHT22;9921;47.186;9.778;2024-01-10T13:05:50;3.00;99.90
19552;DHT22;9921;47.186;9.778;2024-01-10T13:08:17;3.00;99.90
19552;DHT22;9921;47.186;9.778;2024-01-10T13:10:46;2.90;99.90
19552;DHT22;9921;47.186;9.778;2024-01-10T13:13:13;2.80;99.90
19552;DHT22;9921;47.186;9.778;2024-01-10T13:15:41;2.70;99.90
19552;DHT22;9921;47.186;9.778;2024-01-10T13:18:08;2.60;99.90
19552;DHT22;9921;47.186;9.778;2024-01-10T13:20:36;2.60;99.90
19552;DHT22;9921;47.186;9.778;2024-01-10T13:23:03;2.50;99.90
19552;DHT22;9921;47.186;9.778;2024-01-10T13:25:30;2.50;99.90
19552;DHT22;9921;47.186;9.778;2024-01-10T13:27:58;2.40;99.90
19552;DHT22;9921;47.186;9.778;2024-01-10T13:30:26;2.40;99.90
19552;DHT22;9921;47.186;9.778;2024-01-10T13:32:53;2.50;99.90
19552;DHT22;9921;47.186;9.778;2024-01-10T13:35:20;2.60;99.90
19552;DHT22;9921;47.186;9.778;2024-01-10T13:37:48;2.80;99.90
19552;DHT22;9921;47.186;9.778;2024-01-10T13:40:14;2.90;99.90
19552;DHT22;9921;47.186;9.778;2024-01-10T13:42:42;2.90;99.90
19552;DHT22;9921;47.186;9.778;2024-01-10T13:45:11;2.90;99.90
19552;DHT22;9921;47.186;9.778;2024-01-10T13:47:38;3.10;99.90
19552;DHT22;9921;47.186;9.778;2024-01-10T13:50:06;3.20;99.90
19552;DHT22;9921;47.186;9.778;2024-01-10T13:52:34;3.30;99.90
19552;DHT22;9921;47.186;9.778;2024-01-10T13:55:01;3.30;99.90
19552;DHT22;9921;47.186;9.778;2024-01-10T13:57:30;3.30;99.90
19552;DHT22;9921;47.186;9.778;2024-01-10T13:59:58;3.30;99.90
19552;DHT22;9921;47.186;9.778;2024-01-10T14:02:26;3.30;99.90
19552;DHT22;9921;47.186;9.778;2024-01-10T14:04:53;3.30;99.90
19552;DHT22;9921;47.186;9.778;2024-01-10T14:07:23;3.20;99.90
19552;DHT22;9921;47.186;9.778;2024-01-10T14:09:50;3.20;99.90
19552;DHT22;9921;47.186;9.778;2024-01-10T14:12:17;3.20;99.90
19552;DHT22;9921;47.186;9.778;2024-01-10T14:14:44;3.00;99.90
19552;DHT22;9921;47.186;9.778;2024-01-10T14:17:12;3.00;99.90
19552;DHT22;9921;47.186;9.778;2024-01-10T14:19:40;2.90;99.90
19552;DHT22;9921;47.186;9.778;2024-01-10T14:22:09;2.90;99.90
19552;DHT22;9921;47.186;9.778;2024-01-10T14:24:37;2.80;99.90
19552;DHT22;9921;47.186;9.778;2024-01-10T14:27:04;2.80;99.90
19552;DHT22;9921;47.186;9.778;2024-01-10T14:29:33;2.70;99.90
19552;DHT22;9921;47.186;9.778;2024-01-10T14:32:00;2.70;99.90
19552;DHT22;9921;47.186;9.778;2024-01-10T14:34:27;2.70;99.90
19552;DHT22;9921;47.186;9.778;2024-01-10T14:36:56;2.70;99.90
19552;DHT22;9921;47.186;9.778;2024-01-10T14:39:22;2.60;99.90
19552;DHT22;9921;47.186;9.778;2024-01-10T14:41:50;2.60;99.90
19552;DHT22;9921;47.186;9.778;2024-01-10T14:44:17;2.60;99.90
19552;DHT22;9921;47.186;9.778;2024-01-10T14:46:44;2.50;99.90
19552;DHT22;9921;47.186;9.778;2024-01-10T14:49:11;2.50;99.90
19552;DHT22;9921;47.186;9.778;2024-01-10T14:51:37;2.30;99.90
19552;DHT22;9921;47.186;9.778;2024-01-10T14:54:06;2.20;99.90
19552;DHT22;9921;47.186;9.778;2024-01-10T14:56:34;2.20;99.90
19552;DHT22;9921;47.186;9.778;2024-01-10T14:59:01;2.10;99.90
19552;DHT22;9921;47.186;9.778;2024-01-10T15:01:28;2.10;99.90
19552;DHT22;9921;47.186;9.778;2024-01-10T15:03:56;2.10;99.90
19552;DHT22;9921;47.186;9.778;2024-01-10T15:06:23;2.20;99.90
19552;DHT22;9921;47.186;9.778;2024-01-10T15:08:51;2.10;99.90
19552;DHT22;9921;47.186;9.778;2024-01-10T15:11:19;2.10;99.90
19552;DHT22;9921;47.186;9.778;2024-01-10T15:13:46;2.00;99.90
19552;DHT22;9921;47.186;9.778;2024-01-10T15:16:13;2.00;99.90
19552;DHT22;9921;47.186;9.778;2024-01-10T15:18:40;2.00;99.90
19552;DHT22;9921;47.186;9.778;2024-01-10T15:21:07;1.90;99.90
19552;DHT22;9921;47.186;9.778;2024-01-10T15:23:34;1.80;99.90
19552;DHT22;9921;47.186;9.778;2024-01-10T15:26:01;1.70;99.90
19552;DHT22;9921;47.186;9.778;2024-01-10T15:28:29;1.60;99.90
19552;DHT22;9921;47.186;9.778;2024-01-10T15:30:56;1.50;99.90
19552;DHT22;9921;47.186;9.778;2024-01-10T15:33:23;1.50;99.90
19552;DHT22;9921;47.186;9.778;2024-01-10T15:35:50;1.50;99.90
19552;DHT22;9921;47.186;9.778;2024-01-10T15:38:18;1.50;99.90
19552;DHT22;9921;47.186;9.778;2024-01-10T15:40:45;1.40;99.90
19552;DHT22;9921;47.186;9.778;2024-01-10T15:43:11;1.40;99.90
19552;DHT22;9921;47.186;9.778;2024-01-10T15:45:40;1.40;99.90
19552;DHT22;9921;47.186;9.778;2024-01-10T15:48:07;1.40;99.90
19552;DHT22;9921;47.186;9.778;2024-01-10T15:50:34;1.40;99.90
19552;DHT22;9921;47.186;9.778;2024-01-10T15:53:01;1.30;99.90
19552;DHT22;9921;47.186;9.778;2024-01-10T15:55:28;1.20;99.90
19552;DHT22;9921;47.186;9.778;2024-01-10T15:57:55;1.20;99.90